Allentown, Illinois
Current Conditions -  °F | °C
As of 9:54 AM on Friday 31 Oct 2014 (Local Time) from KPIA Reporting Station
Overcast Overcast  
Wind Chill: 30°   Ceiling: 3300
Heat Index: 39°   Visibility: 10mi
Dew Point: 24°   Wind: 17mph
Humidity: 55%   Direction: 360°N
Pressure: 30.24"   Gusts: 31mph
Location:  40.4817°N, 89.4923°W
Report Text: KPIA 311454Z 36015G27KT 10SM OVC033 04/M04 A3024 RMK AO2 PK WND 02029/1428 SLP245 T00391044 51020
Loading
Personal Weather Stations






























Interactive Weather Map
Tropical Storm Tracking
New forecast layout! Learn more

10-Day Weather Forecast

Advertisements
Track Severe Weather on mobile